createdAt,value
2019-02-02T00:01:16.603Z,39.47
2019-02-02T00:03:44.141Z,42.40
2019-02-02T00:06:11.767Z,43.00
2019-02-02T00:08:39.337Z,43.40
2019-02-02T00:11:06.804Z,40.03
2019-02-02T00:13:34.301Z,42.37
2019-02-02T00:16:01.806Z,37.00
2019-02-02T00:18:29.376Z,42.37
2019-02-02T00:20:56.870Z,43.13
2019-02-02T00:23:24.354Z,39.57
2019-02-02T00:25:51.797Z,39.10
2019-02-02T00:28:19.292Z,39.27
2019-02-02T00:30:46.789Z,38.43
2019-02-02T00:33:14.284Z,44.03
2019-02-02T00:35:41.790Z,48.47
2019-02-02T00:38:09.301Z,44.90
2019-02-02T00:40:36.795Z,39.80
2019-02-02T00:43:04.910Z,42.70
2019-02-02T00:45:32.418Z,41.87
2019-02-02T00:47:59.917Z,46.13
2019-02-02T00:50:27.419Z,43.10
2019-02-02T00:52:54.898Z,43.73
2019-02-02T00:55:22.413Z,46.40
2019-02-02T00:57:53.931Z,44.87
2019-02-02T01:00:19.375Z,43.10
2019-02-02T01:02:46.877Z,42.87
2019-02-02T01:05:15.386Z,44.30
2019-02-02T01:07:43.564Z,47.97
2019-02-02T01:10:15.398Z,44.60
2019-02-02T01:12:42.929Z,43.13
2019-02-02T01:15:10.594Z,47.43
2019-02-02T01:17:38.115Z,45.50
2019-02-02T01:20:05.982Z,45.00
2019-02-02T01:22:33.429Z,43.67
2019-02-02T01:25:00.919Z,46.37
2019-02-02T01:27:28.463Z,44.90
2019-02-02T01:29:55.931Z,44.97
2019-02-02T01:32:23.397Z,45.27
2019-02-02T01:34:50.858Z,41.77
2019-02-02T01:37:18.452Z,45.93
2019-02-02T01:39:45.976Z,47.33
2019-02-02T01:42:13.468Z,44.80
2019-02-02T01:44:40.982Z,45.17
2019-02-02T01:47:08.680Z,45.40
2019-02-02T01:49:36.166Z,37.77
2019-02-02T01:52:03.639Z,44.97
2019-02-02T01:54:31.158Z,41.00
2019-02-02T01:56:58.655Z,49.73
2019-02-02T01:59:26.128Z,38.57
2019-02-02T02:01:53.598Z,46.03
2019-02-02T02:04:21.136Z,40.27
2019-02-02T02:06:48.613Z,42.47
2019-02-02T02:09:16.131Z,40.40
2019-02-02T02:11:43.632Z,38.50
2019-02-02T02:14:11.135Z,36.13
2019-02-02T02:16:38.633Z,36.83
2019-02-02T02:19:06.181Z,38.17
2019-02-02T02:21:33.748Z,39.13
2019-02-02T02:24:01.220Z,45.70
2019-02-02T02:26:28.725Z,37.90
2019-02-02T02:28:56.218Z,44.47
2019-02-02T02:31:23.665Z,38.90
2019-02-02T02:33:51.190Z,43.30
2019-02-02T02:36:18.711Z,44.67
2019-02-02T02:38:46.293Z,36.37
2019-02-02T02:41:13.957Z,33.10
2019-02-02T02:43:41.540Z,35.73
2019-02-02T02:46:09.304Z,43.03
2019-02-02T02:48:36.768Z,38.87
2019-02-02T02:51:04.231Z,41.53
2019-02-02T02:53:31.825Z,39.13
2019-02-02T02:55:59.508Z,42.10
2019-02-02T02:58:26.985Z,38.63
2019-02-02T03:00:54.441Z,41.77
2019-02-02T03:03:22.059Z,49.33
2019-02-02T03:05:49.576Z,40.03
2019-02-02T03:08:17.307Z,40.30
2019-02-02T03:10:44.779Z,43.10
2019-02-02T03:13:12.254Z,40.53
2019-02-02T03:15:39.801Z,42.83
2019-02-02T03:18:07.292Z,39.00
2019-02-02T03:20:34.763Z,37.57
2019-02-02T03:23:02.310Z,38.80
2019-02-02T03:25:29.864Z,39.40
2019-02-02T03:27:57.373Z,37.60
2019-02-02T03:30:24.854Z,42.47
2019-02-02T03:32:52.358Z,41.37
2019-02-02T03:35:21.261Z,39.40
2019-02-02T03:37:48.908Z,37.43
2019-02-02T03:40:18.501Z,40.50
2019-02-02T03:42:45.963Z,43.00
2019-02-02T03:45:15.609Z,37.60
2019-02-02T03:47:43.241Z,44.67
2019-02-02T03:50:11.042Z,34.43
2019-02-02T03:52:40.213Z,42.57
2019-02-02T03:55:09.038Z,40.77
2019-02-02T03:57:36.629Z,36.77
2019-02-02T04:00:05.996Z,46.20
2019-02-02T04:02:33.477Z,43.20
2019-02-02T04:05:01.357Z,42.93
2019-02-02T04:07:31.009Z,38.30
2019-02-02T04:09:58.482Z,38.40
2019-02-02T04:12:26.171Z,39.10
2019-02-02T04:14:53.998Z,38.43
2019-02-02T04:17:21.580Z,41.50
2019-02-02T04:19:49.356Z,44.70
2019-02-02T04:22:16.998Z,42.03
2019-02-02T04:24:44.628Z,43.23
2019-02-02T04:27:12.165Z,40.20
2019-02-02T04:29:39.690Z,35.50
2019-02-02T04:32:07.645Z,43.43
2019-02-02T04:34:38.337Z,40.23
2019-02-02T04:37:05.811Z,46.30
2019-02-02T04:39:33.303Z,37.53
2019-02-02T04:42:02.603Z,45.13
2019-02-02T04:44:30.121Z,42.13
2019-02-02T04:46:57.704Z,48.00
2019-02-02T04:49:28.268Z,44.90
2019-02-02T04:51:55.969Z,43.53
2019-02-02T04:54:23.593Z,44.87
2019-02-02T04:56:51.219Z,44.80
2019-02-02T04:59:28.788Z,43.33
2019-02-02T05:01:48.186Z,47.10
2019-02-02T05:04:15.730Z,48.97
2019-02-02T05:06:43.606Z,46.63
2019-02-02T05:09:11.326Z,48.13
2019-02-02T05:11:38.996Z,44.23
2019-02-02T05:14:06.748Z,40.60
2019-02-02T05:16:34.145Z,43.63
2019-02-02T05:19:01.636Z,37.73
2019-02-02T05:21:29.429Z,44.63
2019-02-02T05:23:57.082Z,40.37
2019-02-02T05:26:29.106Z,40.17
2019-02-02T05:28:56.594Z,42.00
2019-02-02T05:31:24.146Z,46.10
2019-02-02T05:33:55.212Z,39.30
2019-02-02T05:36:25.203Z,38.30
2019-02-02T05:38:52.671Z,38.93
2019-02-02T05:41:20.244Z,41.70
2019-02-02T05:43:47.735Z,37.33
2019-02-02T05:46:15.252Z,42.40
2019-02-02T05:48:43.082Z,39.90
2019-02-02T05:51:15.494Z,44.57
2019-02-02T05:53:42.923Z,39.57
2019-02-02T05:56:15.588Z,40.20
2019-02-02T05:58:44.995Z,38.37
2019-02-02T06:01:16.896Z,42.77
2019-02-02T06:03:44.368Z,40.80
2019-02-02T06:06:11.876Z,45.33
2019-02-02T06:08:39.488Z,42.93
2019-02-02T06:11:09.624Z,40.97
2019-02-02T06:13:37.132Z,35.57
2019-02-02T06:16:04.597Z,37.93
2019-02-02T06:18:33.845Z,38.80
2019-02-02T06:21:01.374Z,40.90
2019-02-02T06:23:28.828Z,37.20
2019-02-02T06:25:56.373Z,41.43
2019-02-02T06:28:23.816Z,36.80
2019-02-02T06:30:51.282Z,36.47
2019-02-02T06:33:18.794Z,35.33
2019-02-02T06:35:46.296Z,38.70
2019-02-02T06:38:13.837Z,34.30
2019-02-02T06:40:41.335Z,41.17
2019-02-02T06:43:08.795Z,38.17
2019-02-02T06:45:36.356Z,37.13
2019-02-02T06:48:04.118Z,33.33
2019-02-02T06:50:31.650Z,39.23
2019-02-02T06:52:59.534Z,41.03
2019-02-02T06:55:27.082Z,38.90
2019-02-02T06:57:54.554Z,40.47
2019-02-02T07:00:26.214Z,42.07
2019-02-02T07:02:52.792Z,36.43
2019-02-02T07:05:20.383Z,41.37
2019-02-02T07:07:48.117Z,42.13
2019-02-02T07:10:21.101Z,41.03
2019-02-02T07:12:48.720Z,40.23
2019-02-02T07:15:16.793Z,35.93
2019-02-02T07:17:44.292Z,40.87
2019-02-02T07:20:12.578Z,40.83
2019-02-02T07:22:40.107Z,41.93
2019-02-02T07:25:08.122Z,46.07
2019-02-02T07:27:35.641Z,40.87
2019-02-02T07:30:05.381Z,42.80
2019-02-02T07:32:32.887Z,39.27
2019-02-02T07:35:00.408Z,44.83
2019-02-02T07:37:27.940Z,41.73
2019-02-02T07:39:55.514Z,44.50
2019-02-02T07:42:23.016Z,40.53
2019-02-02T07:44:50.577Z,43.70
2019-02-02T07:47:18.122Z,43.80
2019-02-02T07:49:45.601Z,50.83
2019-02-02T07:52:13.094Z,43.07
2019-02-02T07:54:40.606Z,47.90
2019-02-02T07:57:08.136Z,44.67
2019-02-02T07:59:35.625Z,48.17
2019-02-02T08:02:03.279Z,53.90
2019-02-02T08:04:30.756Z,49.50
2019-02-02T08:06:58.265Z,47.77
2019-02-02T08:09:25.793Z,46.30
2019-02-02T08:11:53.270Z,50.60
2019-02-02T08:14:20.765Z,54.87
2019-02-02T08:16:48.306Z,46.53
2019-02-02T08:19:15.792Z,50.53
2019-02-02T08:21:43.303Z,48.87
2019-02-02T08:24:10.832Z,51.10
2019-02-02T08:26:38.395Z,49.93
2019-02-02T08:29:06.312Z,47.10
2019-02-02T08:31:33.809Z,48.40
2019-02-02T08:34:01.337Z,49.80
2019-02-02T08:36:28.857Z,49.30
2019-02-02T08:38:56.368Z,57.50
2019-02-02T08:41:23.891Z,53.20
2019-02-02T08:43:51.804Z,55.53
2019-02-02T08:46:19.360Z,86.10
2019-02-02T08:48:46.869Z,51.73
2019-02-02T08:51:14.335Z,47.00
2019-02-02T08:53:41.905Z,46.27
2019-02-02T08:56:09.363Z,48.30
2019-02-02T08:58:38.848Z,43.43
2019-02-02T09:01:06.156Z,50.47
2019-02-02T09:03:33.700Z,50.50
2019-02-02T09:06:01.276Z,48.27
2019-02-02T09:08:28.774Z,50.63
2019-02-02T09:10:56.238Z,52.93
2019-02-02T09:13:23.715Z,55.93
2019-02-02T09:15:51.227Z,57.27
2019-02-02T09:18:18.750Z,58.37
2019-02-02T09:20:46.249Z,50.57
2019-02-02T09:23:13.717Z,53.07
2019-02-02T09:25:41.326Z,61.43
2019-02-02T09:28:09.103Z,50.00
2019-02-02T09:30:37.384Z,51.07
2019-02-02T09:33:05.837Z,58.80
2019-02-02T09:35:35.261Z,57.43
2019-02-02T09:38:02.770Z,50.17
2019-02-02T09:40:30.240Z,55.37
2019-02-02T09:42:57.759Z,49.57
2019-02-02T09:45:25.251Z,52.37
2019-02-02T09:47:52.858Z,56.27
2019-02-02T09:50:21.956Z,52.33
2019-02-02T09:52:49.453Z,49.10
2019-02-02T09:55:18.483Z,54.20
2019-02-02T09:57:46.018Z,48.67
2019-02-02T10:00:19.927Z,48.70
2019-02-02T10:02:47.428Z,57.20
2019-02-02T10:05:15.257Z,50.97
2019-02-02T10:07:43.029Z,52.40
2019-02-02T10:10:13.838Z,52.90
2019-02-02T10:12:41.310Z,53.30
2019-02-02T10:15:08.991Z,49.43
2019-02-02T10:17:36.450Z,48.53
2019-02-02T10:20:04.910Z,51.83
2019-02-02T10:22:32.400Z,50.03
2019-02-02T10:24:59.875Z,44.87
2019-02-02T10:27:27.380Z,48.07
2019-02-02T10:29:54.840Z,54.33
2019-02-02T10:32:22.357Z,48.77
2019-02-02T10:34:49.836Z,54.83
2019-02-02T10:37:17.348Z,46.67
2019-02-02T10:39:44.821Z,48.20
2019-02-02T10:42:12.347Z,50.87
2019-02-02T10:44:39.873Z,50.50
2019-02-02T10:47:07.387Z,54.87
2019-02-02T10:49:34.824Z,51.37
2019-02-02T10:52:02.555Z,49.43
2019-02-02T10:54:30.013Z,48.80
2019-02-02T10:56:57.494Z,52.27
2019-02-02T10:59:25.098Z,51.73
2019-02-02T11:01:52.571Z,52.50
2019-02-02T11:04:20.060Z,53.43
2019-02-02T11:06:47.615Z,49.27
2019-02-02T11:09:15.166Z,46.97
2019-02-02T11:11:42.698Z,53.67
2019-02-02T11:14:10.143Z,52.17
2019-02-02T11:16:37.749Z,43.17
2019-02-02T11:19:05.212Z,45.73
2019-02-02T11:21:35.437Z,44.53
2019-02-02T11:24:03.303Z,45.97
2019-02-02T11:26:30.755Z,47.70
2019-02-02T11:28:58.311Z,43.83
2019-02-02T11:31:25.799Z,52.83
2019-02-02T11:33:53.327Z,50.87
2019-02-02T11:36:20.828Z,48.30
2019-02-02T11:38:48.520Z,44.87
2019-02-02T11:41:15.972Z,44.10
2019-02-02T11:43:43.546Z,48.80
2019-02-02T11:46:11.121Z,45.77
2019-02-02T11:48:38.624Z,46.30
2019-02-02T11:51:06.104Z,42.73
2019-02-02T11:53:33.589Z,45.57
2019-02-02T11:56:01.123Z,40.33
2019-02-02T11:58:28.587Z,38.77
2019-02-02T12:00:56.091Z,39.77
2019-02-02T12:03:23.620Z,39.57
2019-02-02T12:05:51.101Z,40.13
2019-02-02T12:08:18.583Z,46.20
2019-02-02T12:10:46.137Z,44.73
2019-02-02T12:13:13.671Z,42.87
2019-02-02T12:15:41.192Z,43.30
2019-02-02T12:18:11.698Z,42.03
2019-02-02T12:20:38.262Z,42.33
2019-02-02T12:23:06.817Z,43.03
2019-02-02T12:25:34.315Z,57.43
2019-02-02T12:28:01.834Z,42.27
2019-02-02T12:30:31.435Z,38.00
2019-02-02T12:32:58.999Z,47.33
2019-02-02T12:35:27.018Z,45.40
2019-02-02T12:37:54.838Z,45.80
2019-02-02T12:40:22.552Z,44.27
2019-02-02T12:42:50.064Z,51.07
2019-02-02T12:45:54.761Z,40.67
2019-02-02T12:48:22.305Z,43.27
2019-02-02T12:50:49.804Z,38.80
2019-02-02T12:53:17.685Z,39.80
2019-02-02T12:55:45.204Z,37.83
2019-02-02T12:58:12.718Z,36.73
2019-02-02T13:00:40.611Z,35.77
2019-02-02T13:03:08.079Z,41.07
2019-02-02T13:05:35.632Z,37.37
2019-02-02T13:08:05.290Z,35.80
2019-02-02T13:10:33.171Z,40.17
2019-02-02T13:13:00.682Z,39.40
2019-02-02T13:15:28.248Z,38.13
2019-02-02T13:17:55.708Z,39.60
2019-02-02T13:20:23.352Z,33.33
2019-02-02T13:22:50.883Z,41.50
2019-02-02T13:25:19.609Z,36.90
2019-02-02T13:27:47.117Z,39.00
2019-02-02T13:30:18.137Z,38.53
2019-02-02T13:32:49.816Z,42.77
2019-02-02T13:35:15.050Z,42.40
2019-02-02T13:37:42.563Z,41.80
2019-02-02T13:40:12.941Z,36.40
2019-02-02T13:42:40.572Z,38.73
2019-02-02T13:45:09.381Z,38.00
2019-02-02T13:47:37.156Z,40.20
2019-02-02T13:50:07.044Z,39.80
2019-02-02T13:52:34.600Z,39.57
2019-02-02T13:55:02.364Z,39.97
2019-02-02T13:57:29.831Z,37.57
2019-02-02T13:59:57.556Z,42.50
2019-02-02T14:02:25.567Z,41.87
2019-02-02T14:04:53.473Z,38.90
2019-02-02T14:07:20.941Z,42.93
2019-02-02T14:09:48.569Z,42.20
2019-02-02T14:12:15.993Z,44.47
2019-02-02T14:14:45.351Z,45.07
2019-02-02T14:20:00.767Z,39.53
2019-02-02T14:22:28.334Z,44.90
2019-02-02T14:24:58.706Z,42.10
2019-02-02T14:27:27.821Z,43.53
2019-02-02T14:29:58.408Z,42.97
2019-02-02T14:32:28.007Z,44.57
2019-02-02T14:34:57.554Z,42.97
2019-02-02T14:37:25.315Z,43.27
2019-02-02T14:39:55.833Z,45.57
2019-02-02T14:45:12.773Z,45.30
2019-02-02T14:47:40.289Z,45.03
2019-02-02T14:50:12.757Z,45.17
2019-02-02T14:52:41.818Z,45.53
2019-02-02T14:55:12.378Z,45.13
2019-02-02T14:57:40.152Z,43.53
2019-02-02T15:00:12.190Z,96.30
2019-02-02T15:02:39.712Z,51.57
2019-02-02T15:05:09.491Z,48.83
2019-02-02T15:07:37.090Z,48.33
2019-02-02T15:10:04.814Z,43.23
2019-02-02T15:12:32.653Z,43.20
2019-02-02T15:15:05.810Z,41.73
2019-02-02T15:17:32.693Z,46.30
2019-02-02T15:20:00.274Z,45.27
2019-02-02T15:22:28.880Z,47.37
2019-02-02T15:24:56.605Z,46.10
2019-02-02T15:27:24.213Z,47.03
2019-02-02T15:29:54.499Z,48.77
2019-02-02T15:32:21.570Z,49.23
2019-02-02T15:34:49.101Z,46.20
2019-02-02T15:37:16.708Z,46.07
2019-02-02T15:39:44.185Z,46.50
2019-02-02T15:42:12.006Z,46.67
2019-02-02T15:44:39.527Z,48.87
2019-02-02T15:47:08.800Z,50.70
2019-02-02T15:49:36.496Z,53.37
2019-02-02T15:52:04.357Z,46.87
2019-02-02T15:54:32.027Z,52.97
2019-02-02T15:56:59.530Z,50.57
2019-02-02T15:59:27.198Z,50.77
2019-02-02T16:01:55.878Z,52.07
2019-02-02T16:04:23.396Z,60.47
2019-02-02T16:06:51.222Z,62.63
2019-02-02T16:09:19.986Z,59.20
2019-02-02T16:11:47.525Z,63.17
2019-02-02T16:14:15.075Z,58.33
2019-02-02T16:16:42.615Z,60.33
2019-02-02T16:19:12.393Z,61.30
2019-02-02T16:21:40.037Z,57.10
2019-02-02T16:24:07.857Z,54.67
2019-02-02T16:26:35.449Z,57.03
2019-02-02T16:29:03.027Z,62.97
2019-02-02T16:31:30.711Z,61.33
2019-02-02T16:34:02.340Z,75.53
2019-02-02T16:36:27.831Z,91.70
2019-02-02T16:38:55.466Z,82.23
2019-02-02T16:41:23.123Z,86.00
2019-02-02T16:43:50.606Z,78.67
2019-02-02T16:46:18.196Z,84.20
2019-02-02T16:48:45.845Z,164.17
2019-02-02T16:51:13.524Z,103.57
2019-02-02T16:53:41.205Z,106.57
2019-02-02T16:56:08.983Z,133.63
2019-02-02T16:58:38.423Z,144.07
2019-02-02T17:01:06.154Z,131.87
2019-02-02T17:03:34.058Z,132.53
2019-02-02T17:06:04.621Z,147.07
2019-02-02T17:08:32.399Z,122.87
2019-02-02T17:11:00.107Z,138.27
2019-02-02T17:13:27.712Z,116.27
2019-02-02T17:15:55.293Z,106.87
2019-02-02T17:18:22.815Z,108.40
2019-02-02T17:20:50.272Z,101.57
2019-02-02T17:23:17.821Z,99.10
2019-02-02T17:25:45.344Z,102.63
2019-02-02T17:28:12.896Z,95.60
2019-02-02T17:30:40.376Z,97.37
2019-02-02T17:33:10.403Z,93.23
2019-02-02T17:35:37.888Z,100.00
2019-02-02T17:38:05.438Z,84.70
2019-02-02T17:40:32.924Z,90.70
2019-02-02T17:43:00.426Z,89.37
2019-02-02T17:45:28.213Z,85.87
2019-02-02T17:47:55.706Z,91.07
2019-02-02T17:50:23.874Z,94.07
2019-02-02T17:52:51.415Z,91.47
2019-02-02T17:55:18.989Z,88.13
2019-02-02T17:57:46.726Z,88.43
2019-02-02T18:00:51.339Z,90.67
2019-02-02T18:03:18.869Z,78.50
2019-02-02T18:05:46.377Z,90.70
2019-02-02T18:08:13.869Z,77.60
2019-02-02T18:10:41.428Z,80.97
2019-02-02T18:13:08.910Z,85.77
2019-02-02T18:15:36.392Z,83.53
2019-02-02T18:18:04.565Z,85.43
2019-02-02T18:20:32.081Z,96.93
2019-02-02T18:23:02.363Z,86.63
2019-02-02T18:25:29.866Z,83.73
2019-02-02T18:27:57.414Z,91.90
2019-02-02T18:30:25.006Z,87.47
2019-02-02T18:32:52.930Z,85.40
2019-02-02T18:35:20.480Z,93.03
2019-02-02T18:37:47.990Z,91.50
2019-02-02T18:40:16.623Z,93.63
2019-02-02T18:42:44.149Z,97.47
2019-02-02T18:45:14.761Z,92.13
2019-02-02T18:47:42.236Z,103.47
2019-02-02T18:50:11.795Z,99.53
2019-02-02T18:52:39.473Z,100.30
2019-02-02T18:55:09.336Z,96.53
2019-02-02T18:57:36.889Z,95.00
2019-02-02T19:00:07.192Z,97.47
2019-02-02T19:02:34.668Z,93.93
2019-02-02T19:05:03.703Z,88.10
2019-02-02T19:07:31.514Z,86.67
2019-02-02T19:09:59.003Z,85.80
2019-02-02T19:12:26.524Z,87.53
2019-02-02T19:14:54.026Z,85.20
2019-02-02T19:17:21.506Z,84.23
2019-02-02T19:19:49.057Z,88.47
2019-02-02T19:22:16.640Z,75.90
2019-02-02T19:24:44.132Z,78.53
2019-02-02T19:27:11.688Z,79.07
2019-02-02T19:29:39.177Z,79.90
2019-02-02T19:32:06.786Z,86.97
2019-02-02T19:34:34.332Z,79.37
2019-02-02T19:37:01.879Z,201.37
2019-02-02T19:39:29.377Z,90.20
2019-02-02T19:41:58.907Z,84.33
2019-02-02T19:44:26.484Z,86.30
2019-02-02T19:46:53.995Z,77.87
2019-02-02T19:49:21.534Z,82.90
2019-02-02T19:51:49.039Z,78.70
2019-02-02T19:54:16.576Z,87.60
2019-02-02T19:56:44.659Z,85.63
2019-02-02T19:59:12.213Z,78.87
2019-02-02T20:01:39.700Z,81.07
2019-02-02T20:04:07.322Z,80.00
2019-02-02T20:06:34.808Z,78.53
2019-02-02T20:09:03.376Z,77.07
2019-02-02T20:11:30.852Z,69.93
2019-02-02T20:13:58.355Z,69.50
2019-02-02T20:16:25.834Z,74.30
2019-02-02T20:18:53.307Z,78.03
2019-02-02T20:21:20.838Z,76.43
2019-02-02T20:23:48.347Z,75.17
2019-02-02T20:26:15.850Z,74.37
2019-02-02T20:28:46.518Z,70.40
2019-02-02T20:31:12.812Z,69.97
2019-02-02T20:33:40.276Z,74.13
2019-02-02T20:36:07.768Z,69.60
2019-02-02T20:38:35.489Z,72.70
2019-02-02T20:41:03.088Z,75.57
2019-02-02T20:43:30.587Z,65.33
2019-02-02T20:45:59.242Z,66.83
2019-02-02T20:48:26.752Z,67.63
2019-02-02T20:50:54.291Z,66.47
2019-02-02T20:53:21.799Z,66.50
2019-02-02T20:55:49.256Z,69.03
2019-02-02T20:58:16.743Z,67.17
2019-02-02T21:00:44.270Z,63.67
2019-02-02T21:03:11.854Z,71.73
2019-02-02T21:05:39.350Z,64.70
2019-02-02T21:08:06.971Z,63.03
2019-02-02T21:10:34.544Z,63.57
2019-02-02T21:13:02.071Z,62.50
2019-02-02T21:15:29.816Z,63.17
2019-02-02T21:17:57.303Z,64.43
2019-02-02T21:20:26.562Z,68.97
2019-02-02T21:22:54.082Z,72.97
2019-02-02T21:25:21.723Z,71.83
2019-02-02T21:27:49.276Z,74.03
2019-02-02T21:30:19.341Z,72.17
2019-02-02T21:32:47.067Z,70.63
2019-02-02T21:35:14.904Z,73.53
2019-02-02T21:37:42.580Z,107.57
2019-02-02T21:40:12.894Z,73.00
2019-02-02T21:42:40.685Z,70.27
2019-02-02T21:45:12.569Z,68.67
2019-02-02T21:47:59.883Z,63.33
2019-02-02T21:50:28.666Z,68.43
2019-02-02T21:52:59.372Z,67.77
2019-02-02T21:55:27.650Z,67.07
2019-02-02T21:57:55.276Z,64.03
2019-02-02T22:00:25.615Z,63.17
2019-02-02T22:02:53.365Z,70.73
2019-02-02T22:05:20.978Z,70.10
2019-02-02T22:07:50.896Z,71.47
2019-02-02T22:10:18.630Z,66.83
2019-02-02T22:12:46.166Z,76.00
2019-02-02T22:15:17.489Z,71.50
2019-02-02T22:17:45.640Z,76.17
2019-02-02T22:20:13.630Z,83.50
2019-02-02T22:22:41.213Z,75.13
2019-02-02T22:25:12.051Z,77.10
2019-02-02T22:27:40.284Z,72.67
2019-02-02T22:30:11.042Z,73.43
2019-02-02T22:32:38.567Z,73.57
2019-02-02T22:35:06.544Z,70.23
2019-02-02T22:37:34.311Z,76.90
2019-02-02T22:40:01.974Z,74.67
2019-02-02T22:42:30.012Z,78.57
2019-02-02T22:44:57.778Z,73.30
2019-02-02T22:47:25.511Z,72.73
2019-02-02T22:49:53.236Z,73.87
2019-02-02T22:52:20.844Z,74.07
2019-02-02T22:54:48.529Z,64.77
2019-02-02T22:57:16.381Z,74.90
2019-02-02T22:59:44.030Z,67.63
2019-02-02T23:02:18.461Z,75.10
2019-02-02T23:05:25.128Z,77.37
2019-02-02T23:08:24.909Z,77.40
2019-02-02T23:11:11.178Z,68.67
2019-02-02T23:14:20.097Z,72.33
2019-02-02T23:16:47.769Z,72.00
2019-02-02T23:19:15.280Z,79.77
2019-02-02T23:21:45.664Z,75.53
2019-02-02T23:24:13.161Z,73.63
2019-02-02T23:26:41.109Z,75.10
2019-02-02T23:29:08.694Z,90.63
2019-02-02T23:31:38.803Z,79.37
2019-02-02T23:34:06.377Z,82.47
2019-02-02T23:36:34.163Z,77.17
2019-02-02T23:39:01.646Z,73.07
2019-02-02T23:41:29.318Z,77.83
2019-02-02T23:43:57.415Z,77.93
2019-02-02T23:46:25.129Z,75.90
2019-02-02T23:48:52.646Z,78.10
2019-02-02T23:51:20.277Z,75.83
2019-02-02T23:53:48.122Z,75.73
2019-02-02T23:56:15.635Z,78.00
2019-02-02T23:58:43.578Z,76.17
